createdAt,value
2019-04-30T00:00:18.311Z,64.93
2019-04-30T00:03:39.073Z,64.92
2019-04-30T00:06:41.142Z,64.83
2019-04-30T00:09:44.959Z,64.77
2019-04-30T00:12:47.260Z,64.75
2019-04-30T00:15:52.807Z,64.62
2019-04-30T00:18:59.875Z,64.23
2019-04-30T00:22:00.360Z,64.08
2019-04-30T00:25:00.746Z,63.89
2019-04-30T00:28:07.230Z,63.79
2019-04-30T00:31:06.631Z,63.59
2019-04-30T00:34:08.686Z,63.47
2019-04-30T00:37:14.002Z,63.63
2019-04-30T00:40:15.375Z,63.73
2019-04-30T00:43:17.473Z,63.72
2019-04-30T00:46:25.306Z,63.68
2019-04-30T00:49:27.293Z,64.25
2019-04-30T00:52:33.848Z,64.51
2019-04-30T00:55:38.147Z,64.39
2019-04-30T00:58:39.459Z,64.03
2019-04-30T01:01:48.096Z,64.08
2019-04-30T01:04:51.654Z,64.08
2019-04-30T01:07:55.013Z,64.08
2019-04-30T01:10:59.791Z,64.12
2019-04-30T01:14:00.886Z,64.17
2019-04-30T01:17:03.861Z,64.32
2019-04-30T01:20:09.395Z,64.40
2019-04-30T01:23:14.740Z,64.52
2019-04-30T01:26:18.605Z,64.54
2019-04-30T01:29:20.586Z,64.83
2019-04-30T01:32:22.500Z,64.78
2019-04-30T01:35:30.904Z,64.72
2019-04-30T01:38:28.780Z,64.57
2019-04-30T01:41:31.431Z,64.62
2019-04-30T01:44:33.593Z,64.55
2019-04-30T01:47:35.500Z,64.63
2019-04-30T01:50:38.631Z,64.89
2019-04-30T01:53:43.663Z,65.10
2019-04-30T01:56:52.672Z,65.25
2019-04-30T02:00:02.173Z,65.40
2019-04-30T02:03:05.489Z,65.41
2019-04-30T02:06:09.135Z,65.35
2019-04-30T02:09:11.317Z,65.04
2019-04-30T02:12:13.187Z,64.84
2019-04-30T02:15:15.119Z,64.81
2019-04-30T02:18:17.021Z,64.69
2019-04-30T02:21:19.431Z,64.61
2019-04-30T02:24:21.855Z,64.37
2019-04-30T02:27:23.743Z,64.25
2019-04-30T02:30:25.666Z,64.17
2019-04-30T02:33:30.715Z,64.11
2019-04-30T02:36:34.628Z,63.94
2019-04-30T02:39:36.542Z,63.74
2019-04-30T02:42:39.798Z,63.58
2019-04-30T02:45:45.101Z,63.54
2019-04-30T02:48:50.476Z,63.48
2019-04-30T02:51:55.297Z,63.33
2019-04-30T02:54:59.315Z,63.46
2019-04-30T02:58:01.704Z,63.64
2019-04-30T03:01:03.557Z,63.73
2019-04-30T03:04:05.455Z,63.77
2019-04-30T03:07:09.767Z,63.68
2019-04-30T03:10:11.445Z,63.73
2019-04-30T03:13:13.337Z,63.81
2019-04-30T03:16:17.070Z,63.79
2019-04-30T03:19:40.245Z,63.66
2019-04-30T03:22:42.774Z,63.55
2019-04-30T03:25:44.651Z,63.47
2019-04-30T03:28:49.185Z,63.44
2019-04-30T03:31:52.438Z,63.24
2019-04-30T03:34:54.357Z,63.15
2019-04-30T03:37:59.307Z,63.19
2019-04-30T03:41:01.299Z,63.18
2019-04-30T03:44:17.374Z,63.05
2019-04-30T03:47:10.583Z,62.92
2019-04-30T03:50:11.945Z,62.81
2019-04-30T03:53:13.876Z,62.64
2019-04-30T03:56:15.777Z,62.55
2019-04-30T03:59:19.972Z,62.28
2019-04-30T04:02:26.046Z,62.43
2019-04-30T04:05:44.819Z,62.44
2019-04-30T04:08:49.045Z,62.43
2019-04-30T04:11:51.246Z,62.60
2019-04-30T04:14:53.197Z,62.53
2019-04-30T04:17:55.143Z,62.46
2019-04-30T04:21:08.728Z,62.39
2019-04-30T04:24:00.959Z,62.13
2019-04-30T04:27:03.936Z,62.07
2019-04-30T04:30:10.725Z,61.80
2019-04-30T04:33:12.760Z,61.58
2019-04-30T04:36:14.757Z,61.38
2019-04-30T04:39:16.701Z,60.87
2019-04-30T04:42:19.584Z,60.23
2019-04-30T04:45:21.954Z,59.46
2019-04-30T04:48:23.926Z,59.19
2019-04-30T04:51:36.718Z,58.78
2019-04-30T04:54:30.230Z,58.60
2019-04-30T04:57:32.296Z,58.22
2019-04-30T05:00:34.164Z,58.07
2019-04-30T05:03:39.923Z,57.55
2019-04-30T05:06:41.855Z,56.88
2019-04-30T05:09:43.859Z,56.09
2019-04-30T05:12:45.740Z,55.35
2019-04-30T05:15:51.293Z,55.22
2019-04-30T05:18:51.586Z,55.20
2019-04-30T05:21:53.562Z,55.16
2019-04-30T05:24:55.525Z,55.07
2019-04-30T05:27:58.672Z,54.78
2019-04-30T05:31:00.850Z,54.51
2019-04-30T05:34:03.007Z,52.73
2019-04-30T05:37:05.038Z,51.14
2019-04-30T05:40:09.207Z,48.99
2019-04-30T05:43:11.325Z,46.86
2019-04-30T05:46:14.134Z,44.88
2019-04-30T05:49:16.236Z,43.23
2019-04-30T05:52:19.914Z,43.77
2019-04-30T05:55:22.108Z,44.01
2019-04-30T05:58:24.095Z,44.69
2019-04-30T06:01:26.080Z,45.08
2019-04-30T06:04:29.444Z,45.55
2019-04-30T06:07:31.528Z,46.09
2019-04-30T06:10:35.448Z,46.57
2019-04-30T06:13:45.228Z,47.14
2019-04-30T06:17:06.085Z,47.66
2019-04-30T06:20:17.872Z,48.41
2019-04-30T06:23:12.159Z,49.20
2019-04-30T06:26:14.268Z,49.69
2019-04-30T06:29:16.235Z,50.23
2019-04-30T06:32:18.868Z,50.55
2019-04-30T06:35:20.989Z,50.85
2019-04-30T06:38:22.889Z,51.00
2019-04-30T06:41:24.931Z,50.84
2019-04-30T06:44:37.009Z,50.42
2019-04-30T06:47:33.603Z,49.48
2019-04-30T06:50:35.927Z,48.07
2019-04-30T06:53:39.166Z,46.79
2019-04-30T06:56:41.220Z,45.82
2019-04-30T06:59:43.259Z,44.93
2019-04-30T07:02:46.666Z,44.15
2019-04-30T07:05:49.211Z,43.46
2019-04-30T07:09:06.324Z,42.89
2019-04-30T07:12:27.213Z,42.04
2019-04-30T07:15:22.809Z,41.11
2019-04-30T07:18:24.764Z,39.41
2019-04-30T07:21:29.434Z,39.95
2019-04-30T07:24:31.668Z,40.16
2019-04-30T07:27:33.813Z,40.72
2019-04-30T07:30:35.843Z,40.83
2019-04-30T07:33:39.608Z,40.32
2019-04-30T07:36:48.289Z,39.30
2019-04-30T07:39:45.532Z,39.17
2019-04-30T07:42:49.317Z,36.96
2019-04-30T07:45:51.469Z,36.96
2019-04-30T07:48:53.448Z,35.66
2019-04-30T07:51:57.697Z,34.00
2019-04-30T07:55:00.895Z,32.73
2019-04-30T07:58:02.763Z,33.70
2019-04-30T08:01:04.715Z,34.22
2019-04-30T08:04:14.357Z,34.26
2019-04-30T08:07:16.304Z,34.37
2019-04-30T08:10:18.884Z,34.18
2019-04-30T08:13:22.058Z,33.92
2019-04-30T08:16:24.560Z,34.71
2019-04-30T08:19:26.494Z,34.89
2019-04-30T08:22:29.720Z,35.08
2019-04-30T08:25:32.014Z,34.28
2019-04-30T08:28:34.004Z,34.64
2019-04-30T08:31:40.678Z,34.33
2019-04-30T08:34:40.803Z,33.67
2019-04-30T08:37:42.741Z,34.39
2019-04-30T08:40:55.597Z,36.06
2019-04-30T08:43:49.690Z,36.06
2019-04-30T08:46:51.939Z,37.19
2019-04-30T08:49:53.895Z,37.95
2019-04-30T08:52:56.107Z,38.71
2019-04-30T08:55:59.154Z,39.06
2019-04-30T08:59:01.314Z,39.33
2019-04-30T09:02:13.640Z,39.80
2019-04-30T09:05:18.623Z,39.85
2019-04-30T09:08:20.592Z,40.05
2019-04-30T09:11:30.167Z,40.59
2019-04-30T09:14:26.339Z,41.21
2019-04-30T09:17:29.689Z,41.88
2019-04-30T09:20:31.920Z,42.29
2019-04-30T09:23:44.115Z,42.68
2019-04-30T09:26:39.191Z,42.54
2019-04-30T09:30:02.224Z,41.90
2019-04-30T09:33:06.070Z,41.42
2019-04-30T09:36:09.230Z,41.11
2019-04-30T09:39:11.626Z,40.82
2019-04-30T09:42:13.572Z,40.95
2019-04-30T09:45:15.763Z,40.83
2019-04-30T09:48:19.017Z,40.19
2019-04-30T09:51:24.197Z,39.94
2019-04-30T09:54:29.009Z,40.10
2019-04-30T09:57:31.749Z,39.69
2019-04-30T10:00:33.697Z,39.34
2019-04-30T10:03:36.441Z,39.24
2019-04-30T10:06:40.356Z,38.86
2019-04-30T10:09:42.440Z,38.88
2019-04-30T10:12:44.411Z,39.30
2019-04-30T10:15:50.133Z,38.52
2019-04-30T10:18:53.640Z,38.52
2019-04-30T10:21:58.961Z,37.79
2019-04-30T10:25:06.675Z,37.68
2019-04-30T10:28:09.969Z,37.80
2019-04-30T10:31:12.755Z,38.03
2019-04-30T10:34:15.204Z,37.87
2019-04-30T10:37:18.919Z,37.88
2019-04-30T10:40:21.169Z,37.74
2019-04-30T10:43:23.213Z,37.96
2019-04-30T10:46:25.995Z,38.25
2019-04-30T10:49:29.167Z,38.91
2019-04-30T10:52:32.183Z,38.86
2019-04-30T10:55:38.749Z,38.86
2019-04-30T10:58:41.119Z,38.25
2019-04-30T11:01:43.074Z,38.25
2019-04-30T11:04:44.984Z,38.10
2019-04-30T11:07:46.926Z,37.12
2019-04-30T11:10:48.796Z,36.77
2019-04-30T11:13:50.743Z,36.72
2019-04-30T11:16:52.980Z,36.55
2019-04-30T11:19:55.576Z,36.62
2019-04-30T11:22:58.203Z,36.30
2019-04-30T11:26:01.213Z,36.45
2019-04-30T11:29:04.074Z,36.30
2019-04-30T11:32:08.200Z,36.49
2019-04-30T11:35:10.703Z,36.29
2019-04-30T11:38:12.655Z,36.41
2019-04-30T11:41:14.688Z,36.08
2019-04-30T11:44:29.853Z,36.43
2019-04-30T11:47:25.598Z,36.95
2019-04-30T11:50:30.014Z,37.23
2019-04-30T11:53:31.385Z,37.49
2019-04-30T11:56:33.790Z,37.35
2019-04-30T11:59:35.768Z,37.65
2019-04-30T12:02:39.442Z,38.05
2019-04-30T12:05:41.429Z,38.29
2019-04-30T12:09:00.613Z,37.48
2019-04-30T12:12:02.593Z,37.30
2019-04-30T12:15:06.357Z,37.94
2019-04-30T12:18:09.366Z,38.30
2019-04-30T12:21:12.415Z,38.65
2019-04-30T12:24:14.361Z,39.18
2019-04-30T12:27:16.264Z,38.72
2019-04-30T12:30:20.742Z,39.03
2019-04-30T12:33:23.195Z,38.31
2019-04-30T12:36:25.154Z,38.65
2019-04-30T12:39:29.807Z,39.07
2019-04-30T12:42:51.767Z,39.46
2019-04-30T12:46:02.658Z,38.82
2019-04-30T12:49:05.511Z,38.78
2019-04-30T12:52:11.755Z,39.08
2019-04-30T12:55:32.247Z,38.79
2019-04-30T12:58:34.228Z,38.79
2019-04-30T13:01:36.157Z,39.21
2019-04-30T13:07:42.015Z,38.70
2019-04-30T13:10:45.191Z,37.15
2019-04-30T13:13:50.035Z,36.78
2019-04-30T13:16:51.504Z,36.93
2019-04-30T13:19:53.580Z,37.41
2019-04-30T13:22:55.491Z,36.82
2019-04-30T13:25:58.469Z,37.23
2019-04-30T13:29:18.280Z,37.13
2019-04-30T13:32:29.556Z,37.12
2019-04-30T13:35:24.066Z,37.61
2019-04-30T13:38:28.926Z,37.52
2019-04-30T13:41:38.163Z,37.09
2019-04-30T13:44:40.406Z,37.09
2019-04-30T13:47:42.352Z,37.15
2019-04-30T13:50:44.481Z,37.11
2019-04-30T13:53:46.423Z,37.06
2019-04-30T13:56:49.337Z,37.27
2019-04-30T14:03:01.638Z,35.71
2019-04-30T14:06:05.029Z,35.70
2019-04-30T14:09:27.145Z,35.70
2019-04-30T14:12:30.949Z,35.39
2019-04-30T14:15:33.107Z,34.87
2019-04-30T14:18:35.048Z,34.66
2019-04-30T14:21:39.003Z,34.65
2019-04-30T14:24:40.996Z,33.44
2019-04-30T14:27:49.425Z,33.55
2019-04-30T14:30:46.907Z,33.19
2019-04-30T14:33:48.805Z,33.62
2019-04-30T14:36:50.777Z,33.34
2019-04-30T14:39:53.218Z,33.87
2019-04-30T14:43:04.625Z,33.98
2019-04-30T14:46:27.644Z,34.01
2019-04-30T14:49:39.131Z,34.49
2019-04-30T14:52:43.787Z,33.43
2019-04-30T14:55:49.447Z,33.43
2019-04-30T14:59:09.851Z,33.26
2019-04-30T15:02:19.508Z,33.26
2019-04-30T15:05:21.842Z,32.53
2019-04-30T15:08:23.812Z,32.53
2019-04-30T15:11:25.805Z,32.91
2019-04-30T15:14:27.737Z,32.55
2019-04-30T15:17:29.821Z,33.17
2019-04-30T15:20:31.785Z,32.63
2019-04-30T15:23:38.157Z,32.63
2019-04-30T15:26:41.336Z,32.04
2019-04-30T15:29:43.485Z,32.04
2019-04-30T15:32:47.231Z,32.33
2019-04-30T15:35:50.316Z,32.54
2019-04-30T15:39:10.763Z,33.12
2019-04-30T15:42:13.286Z,32.88
2019-04-30T15:45:16.937Z,33.32
2019-04-30T15:48:19.627Z,33.54
2019-04-30T15:51:21.848Z,33.29
2019-04-30T15:54:24.151Z,33.21
2019-04-30T15:57:26.126Z,33.63
2019-04-30T16:00:31.333Z,33.90
2019-04-30T16:03:38.585Z,34.51
2019-04-30T16:06:40.629Z,34.37
2019-04-30T16:09:48.606Z,33.61
2019-04-30T16:13:09.694Z,34.20
2019-04-30T16:16:13.190Z,34.36
2019-04-30T16:19:15.369Z,34.47
2019-04-30T16:22:19.179Z,34.71
2019-04-30T16:25:21.481Z,35.10
2019-04-30T16:28:23.433Z,34.74
2019-04-30T16:31:25.442Z,34.08
2019-04-30T16:34:30.146Z,34.38
2019-04-30T16:37:31.323Z,34.45
2019-04-30T16:40:33.237Z,34.36
2019-04-30T16:43:35.194Z,34.44
2019-04-30T16:46:37.153Z,34.51
2019-04-30T16:49:39.147Z,34.21
2019-04-30T16:52:41.089Z,34.22
2019-04-30T16:55:43.274Z,34.24
2019-04-30T16:59:02.335Z,34.64
2019-04-30T17:02:04.706Z,35.10
2019-04-30T17:05:11.255Z,35.77
2019-04-30T17:08:31.435Z,35.74
2019-04-30T17:11:53.201Z,36.07
2019-04-30T17:15:14.001Z,36.24
2019-04-30T17:18:15.908Z,36.62
2019-04-30T17:21:19.703Z,37.17
2019-04-30T17:24:22.714Z,37.65
2019-04-30T17:27:24.774Z,37.89
2019-04-30T17:30:29.327Z,38.05
2019-04-30T17:33:31.592Z,38.14
2019-04-30T17:36:35.003Z,38.32
2019-04-30T17:39:40.851Z,38.28
2019-04-30T17:42:41.122Z,38.35
2019-04-30T17:45:43.795Z,38.32
2019-04-30T17:48:45.728Z,38.42
2019-04-30T17:51:49.135Z,38.59
2019-04-30T17:54:51.295Z,38.77
2019-04-30T17:57:55.033Z,38.91
2019-04-30T18:01:00.666Z,39.11
2019-04-30T18:04:02.668Z,39.19
2019-04-30T18:07:05.149Z,39.28
2019-04-30T18:10:09.154Z,39.51
2019-04-30T18:13:12.406Z,39.75
2019-04-30T18:16:14.380Z,39.93
2019-04-30T18:19:34.571Z,40.00
2019-04-30T18:22:41.510Z,40.19
2019-04-30T18:25:48.166Z,40.46
2019-04-30T18:28:50.353Z,40.67
2019-04-30T18:31:52.302Z,40.76
2019-04-30T18:34:54.393Z,40.82
2019-04-30T18:37:58.649Z,41.13
2019-04-30T18:41:00.767Z,41.23
2019-04-30T18:44:03.935Z,41.62
2019-04-30T18:47:05.891Z,42.03
2019-04-30T18:50:10.231Z,42.06
2019-04-30T18:53:18.539Z,42.02
2019-04-30T18:56:20.726Z,41.86
2019-04-30T18:59:22.859Z,42.38
2019-04-30T19:02:24.799Z,42.83
2019-04-30T19:05:29.362Z,42.99
2019-04-30T19:08:35.273Z,43.38
2019-04-30T19:11:49.390Z,43.72
2019-04-30T19:14:53.897Z,43.89
2019-04-30T19:18:00.496Z,43.76
2019-04-30T19:21:05.654Z,43.66
2019-04-30T19:24:08.641Z,43.50
2019-04-30T19:27:10.938Z,43.39
2019-04-30T19:30:15.132Z,43.19
2019-04-30T19:33:18.781Z,43.18
2019-04-30T19:36:35.104Z,43.17
2019-04-30T19:39:26.752Z,43.11
2019-04-30T19:42:29.770Z,43.03
2019-04-30T19:45:39.292Z,42.94
2019-04-30T19:48:44.436Z,42.91
2019-04-30T19:51:46.767Z,42.87
2019-04-30T19:54:50.895Z,42.84
2019-04-30T19:57:55.274Z,42.83
2019-04-30T20:00:59.421Z,42.96
2019-04-30T20:04:01.388Z,43.46
2019-04-30T20:07:03.436Z,43.67
2019-04-30T20:10:09.069Z,43.73
2019-04-30T20:13:11.737Z,43.70
2019-04-30T20:16:13.688Z,43.75
2019-04-30T20:19:18.144Z,43.83
2019-04-30T20:22:20.440Z,43.95
2019-04-30T20:25:24.346Z,44.04
2019-04-30T20:28:38.526Z,44.25
2019-04-30T20:31:32.377Z,44.57
2019-04-30T20:34:34.317Z,44.95
2019-04-30T20:37:40.965Z,44.81
2019-04-30T20:40:57.036Z,44.75
2019-04-30T20:43:49.433Z,44.53
2019-04-30T20:46:54.283Z,44.40
2019-04-30T20:49:58.688Z,44.49
2019-04-30T20:53:00.609Z,44.63
2019-04-30T20:56:02.649Z,44.54
2019-04-30T20:59:08.086Z,44.40
2019-04-30T21:02:09.414Z,44.40
2019-04-30T21:05:11.763Z,44.41
2019-04-30T21:08:13.747Z,44.63
2019-04-30T21:11:16.944Z,44.38
2019-04-30T21:14:19.390Z,44.18
2019-04-30T21:17:21.501Z,43.99
2019-04-30T21:20:23.485Z,43.90
2019-04-30T21:23:25.444Z,43.62
2019-04-30T21:26:27.424Z,43.45
2019-04-30T21:29:29.654Z,43.14
2019-04-30T21:32:50.542Z,42.83
2019-04-30T21:35:54.329Z,42.75
2019-04-30T21:38:56.400Z,42.72
2019-04-30T21:41:59.426Z,42.70
2019-04-30T21:45:01.622Z,42.72
2019-04-30T21:48:03.589Z,42.75
2019-04-30T21:51:05.518Z,42.71
2019-04-30T21:54:07.520Z,42.74
2019-04-30T21:57:09.431Z,42.80
2019-04-30T22:00:14.931Z,42.86
2019-04-30T22:03:19.698Z,43.03
2019-04-30T22:06:21.864Z,43.09
2019-04-30T22:09:23.851Z,43.17
2019-04-30T22:12:25.794Z,43.22
2019-04-30T22:15:27.884Z,43.33
2019-04-30T22:18:29.872Z,43.56
2019-04-30T22:21:31.914Z,43.79
2019-04-30T22:24:33.913Z,43.99
2019-04-30T22:27:35.829Z,44.14
2019-04-30T22:30:37.832Z,44.43
2019-04-30T22:33:39.877Z,44.68
2019-04-30T22:36:43.628Z,44.84
2019-04-30T22:39:49.555Z,44.87
2019-04-30T22:42:51.474Z,45.00
2019-04-30T22:46:01.274Z,45.46
2019-04-30T22:49:03.322Z,45.71
2019-04-30T22:52:05.354Z,46.18
2019-04-30T22:55:07.530Z,46.45
2019-04-30T22:58:09.519Z,46.50
2019-04-30T23:01:19.722Z,46.59
2019-04-30T23:04:28.147Z,46.60
2019-04-30T23:07:31.175Z,46.71
2019-04-30T23:10:35.954Z,46.87
2019-04-30T23:13:39.071Z,47.06
2019-04-30T23:16:41.280Z,47.10
2019-04-30T23:19:49.347Z,47.20
2019-04-30T23:22:48.498Z,47.27
2019-04-30T23:25:51.515Z,47.45
2019-04-30T23:28:53.525Z,47.65
2019-04-30T23:31:55.420Z,47.89
2019-04-30T23:34:57.437Z,48.09
2019-04-30T23:37:59.339Z,48.21
2019-04-30T23:41:01.321Z,48.36
2019-04-30T23:44:03.545Z,48.50
2019-04-30T23:47:05.566Z,48.86
2019-04-30T23:50:07.478Z,49.17
2019-04-30T23:53:09.675Z,49.40
2019-04-30T23:56:11.623Z,49.45
2019-04-30T23:59:13.508Z,49.68
